sensor_id;sensor_type;location;lat;lon;timestamp;pressure;altitude;pressure_sealevel;temperature;humidity
41306;BME280;27051;50.376;19.152;2023-03-14T00:02:02;96690.52;;;9.81;47.89
41306;BME280;27051;50.376;19.152;2023-03-14T00:04:29;96683.16;;;9.83;47.83
41306;BME280;27051;50.376;19.152;2023-03-14T00:06:56;96682.89;;;9.85;47.81
41306;BME280;27051;50.376;19.152;2023-03-14T00:09:22;96677.15;;;9.85;47.90
41306;BME280;27051;50.376;19.152;2023-03-14T00:11:48;96678.14;;;9.85;47.88
41306;BME280;27051;50.376;19.152;2023-03-14T00:14:15;96667.70;;;9.85;47.84
41306;BME280;27051;50.376;19.152;2023-03-14T00:16:41;96663.31;;;9.83;48.03
41306;BME280;27051;50.376;19.152;2023-03-14T00:19:08;96659.13;;;9.77;47.98
41306;BME280;27051;50.376;19.152;2023-03-14T00:21:34;96652.02;;;9.71;48.02
41306;BME280;27051;50.376;19.152;2023-03-14T00:24:00;96642.38;;;9.68;48.08
41306;BME280;27051;50.376;19.152;2023-03-14T00:26:27;96627.24;;;9.63;48.16
41306;BME280;27051;50.376;19.152;2023-03-14T00:28:54;96611.58;;;9.60;48.21
41306;BME280;27051;50.376;19.152;2023-03-14T00:31:20;96600.50;;;9.56;48.19
41306;BME280;27051;50.376;19.152;2023-03-14T00:33:47;96584.23;;;9.55;48.24
41306;BME280;27051;50.376;19.152;2023-03-14T00:36:16;96575.89;;;9.54;48.28
41306;BME280;27051;50.376;19.152;2023-03-14T00:38:44;96574.25;;;9.51;48.49
41306;BME280;27051;50.376;19.152;2023-03-14T00:41:13;96585.52;;;9.45;48.26
41306;BME280;27051;50.376;19.152;2023-03-14T00:43:41;96585.58;;;9.43;48.35
41306;BME280;27051;50.376;19.152;2023-03-14T00:46:07;96573.23;;;9.41;48.27
41306;BME280;27051;50.376;19.152;2023-03-14T00:48:34;96566.61;;;9.38;48.35
41306;BME280;27051;50.376;19.152;2023-03-14T00:51:03;96558.78;;;9.36;48.36
41306;BME280;27051;50.376;19.152;2023-03-14T00:53:30;96541.87;;;9.31;48.35
41306;BME280;27051;50.376;19.152;2023-03-14T00:55:56;96529.56;;;9.26;48.56
41306;BME280;27051;50.376;19.152;2023-03-14T00:58:23;96539.04;;;9.22;48.57
41306;BME280;27051;50.376;19.152;2023-03-14T01:00:49;96543.88;;;9.17;48.52
41306;BME280;27051;50.376;19.152;2023-03-14T01:03:16;96543.91;;;9.12;48.55
41306;BME280;27051;50.376;19.152;2023-03-14T01:05:42;96536.38;;;9.11;48.70
41306;BME280;27051;50.376;19.152;2023-03-14T01:08:08;96528.92;;;9.07;48.73
41306;BME280;27051;50.376;19.152;2023-03-14T01:10:38;96522.67;;;9.04;48.83
41306;BME280;27051;50.376;19.152;2023-03-14T01:13:05;96519.48;;;8.99;48.95
41306;BME280;27051;50.376;19.152;2023-03-14T01:15:33;96510.00;;;8.92;48.90
41306;BME280;27051;50.376;19.152;2023-03-14T01:18:00;96513.71;;;8.87;48.87
41306;BME280;27051;50.376;19.152;2023-03-14T01:20:26;96518.37;;;8.86;48.91
41306;BME280;27051;50.376;19.152;2023-03-14T01:22:53;96515.74;;;8.85;49.10
41306;BME280;27051;50.376;19.152;2023-03-14T01:25:19;96511.89;;;8.83;49.00
41306;BME280;27051;50.376;19.152;2023-03-14T01:27:46;96498.04;;;8.83;48.95
41306;BME280;27051;50.376;19.152;2023-03-14T01:30:13;96489.78;;;8.84;48.95
41306;BME280;27051;50.376;19.152;2023-03-14T01:32:40;96485.57;;;8.83;49.09
41306;BME280;27051;50.376;19.152;2023-03-14T01:35:07;96481.91;;;8.85;48.97
41306;BME280;27051;50.376;19.152;2023-03-14T01:37:33;96475.95;;;8.85;49.02
41306;BME280;27051;50.376;19.152;2023-03-14T01:40:00;96464.38;;;8.85;49.10
41306;BME280;27051;50.376;19.152;2023-03-14T01:42:26;96456.04;;;8.84;49.01
41306;BME280;27051;50.376;19.152;2023-03-14T01:44:59;96458.34;;;8.85;49.11
41306;BME280;27051;50.376;19.152;2023-03-14T01:47:26;96458.31;;;8.83;49.17
41306;BME280;27051;50.376;19.152;2023-03-14T01:49:57;96464.05;;;8.82;49.29
41306;BME280;27051;50.376;19.152;2023-03-14T01:52:41;96462.64;;;8.79;49.35
41306;BME280;27051;50.376;19.152;2023-03-14T01:55:12;96453.55;;;8.75;49.63
41306;BME280;27051;50.376;19.152;2023-03-14T01:57:53;96442.20;;;8.65;49.53
41306;BME280;27051;50.376;19.152;2023-03-14T02:00:22;96434.91;;;8.56;49.50
41306;BME280;27051;50.376;19.152;2023-03-14T02:02:59;96429.64;;;8.49;49.59
41306;BME280;27051;50.376;19.152;2023-03-14T02:05:39;96423.88;;;8.48;49.82
41306;BME280;27051;50.376;19.152;2023-03-14T02:08:20;96424.73;;;8.46;49.92
41306;BME280;27051;50.376;19.152;2023-03-14T02:10:49;96416.64;;;8.38;49.88
41306;BME280;27051;50.376;19.152;2023-03-14T02:13:18;96418.18;;;8.39;49.99
41306;BME280;27051;50.376;19.152;2023-03-14T02:15:46;96423.23;;;8.39;49.93
41306;BME280;27051;50.376;19.152;2023-03-14T02:18:13;96432.02;;;8.39;50.08
41306;BME280;27051;50.376;19.152;2023-03-14T02:23:11;96439.49;;;8.37;50.14
41306;BME280;27051;50.376;19.152;2023-03-14T02:25:52;96437.23;;;8.34;50.13
41306;BME280;27051;50.376;19.152;2023-03-14T02:28:23;96439.98;;;8.33;50.20
41306;BME280;27051;50.376;19.152;2023-03-14T02:30:49;96426.70;;;8.29;50.26
41306;BME280;27051;50.376;19.152;2023-03-14T02:33:18;96426.14;;;8.28;50.35
41306;BME280;27051;50.376;19.152;2023-03-14T02:38:35;96413.73;;;8.19;50.50
41306;BME280;27051;50.376;19.152;2023-03-14T02:41:04;96411.29;;;8.14;50.49
41306;BME280;27051;50.376;19.152;2023-03-14T02:43:30;96407.46;;;8.13;50.46
41306;BME280;27051;50.376;19.152;2023-03-14T02:45:57;96404.31;;;8.12;50.60
41306;BME280;27051;50.376;19.152;2023-03-14T02:48:58;96405.60;;;8.11;50.61
41306;BME280;27051;50.376;19.152;2023-03-14T02:51:28;96414.03;;;8.19;50.69
41306;BME280;27051;50.376;19.152;2023-03-14T02:53:55;96412.06;;;8.21;50.65
41306;BME280;27051;50.376;19.152;2023-03-14T02:56:21;96416.64;;;8.25;50.75
41306;BME280;27051;50.376;19.152;2023-03-14T02:58:48;96420.22;;;8.25;50.73
41306;BME280;27051;50.376;19.152;2023-03-14T03:01:14;96419.71;;;8.21;50.80
41306;BME280;27051;50.376;19.152;2023-03-14T03:03:41;96420.47;;;8.19;50.78
41306;BME280;27051;50.376;19.152;2023-03-14T03:06:07;96425.98;;;8.21;50.92
41306;BME280;27051;50.376;19.152;2023-03-14T03:08:34;96424.33;;;8.23;50.72
41306;BME280;27051;50.376;19.152;2023-03-14T03:11:00;96427.05;;;8.28;50.87
41306;BME280;27051;50.376;19.152;2023-03-14T03:13:27;96422.39;;;8.26;50.92
41306;BME280;27051;50.376;19.152;2023-03-14T03:15:53;96423.69;;;8.20;51.15
41306;BME280;27051;50.376;19.152;2023-03-14T03:18:20;96418.84;;;8.12;51.09
41306;BME280;27051;50.376;19.152;2023-03-14T03:20:48;96418.85;;;8.00;51.23
41306;BME280;27051;50.376;19.152;2023-03-14T03:23:15;96423.93;;;7.92;51.27
41306;BME280;27051;50.376;19.152;2023-03-14T03:25:48;96426.38;;;7.86;51.36
41306;BME280;27051;50.376;19.152;2023-03-14T03:28:14;96422.58;;;7.82;51.45
41306;BME280;27051;50.376;19.152;2023-03-14T03:30:41;96430.46;;;7.83;51.52
41306;BME280;27051;50.376;19.152;2023-03-14T03:33:08;96446.56;;;7.81;51.49
41306;BME280;27051;50.376;19.152;2023-03-14T03:35:41;96455.51;;;7.76;51.46
41306;BME280;27051;50.376;19.152;2023-03-14T03:38:08;96455.44;;;7.72;51.50
41306;BME280;27051;50.376;19.152;2023-03-14T03:40:34;96473.73;;;7.70;51.63
41306;BME280;27051;50.376;19.152;2023-03-14T03:43:01;96492.45;;;7.59;51.75
41306;BME280;27051;50.376;19.152;2023-03-14T03:45:27;96505.13;;;7.49;51.88
41306;BME280;27051;50.376;19.152;2023-03-14T03:47:54;96509.98;;;7.42;52.04
41306;BME280;27051;50.376;19.152;2023-03-14T03:50:20;96509.21;;;7.38;52.16
41306;BME280;27051;50.376;19.152;2023-03-14T03:52:47;96503.33;;;7.36;52.28
41306;BME280;27051;50.376;19.152;2023-03-14T03:55:13;96495.73;;;7.40;52.40
41306;BME280;27051;50.376;19.152;2023-03-14T03:57:40;96487.59;;;7.41;52.42
41306;BME280;27051;50.376;19.152;2023-03-14T04:00:07;96481.96;;;7.43;52.47
41306;BME280;27051;50.376;19.152;2023-03-14T04:02:33;96467.43;;;7.51;52.53
41306;BME280;27051;50.376;19.152;2023-03-14T04:05:00;96467.80;;;7.60;52.57
41306;BME280;27051;50.376;19.152;2023-03-14T04:07:26;96460.31;;;7.71;52.62
41306;BME280;27051;50.376;19.152;2023-03-14T04:09:53;96459.12;;;7.78;52.61
41306;BME280;27051;50.376;19.152;2023-03-14T04:12:19;96454.41;;;7.80;52.63
41306;BME280;27051;50.376;19.152;2023-03-14T04:14:46;96455.53;;;7.83;52.73
41306;BME280;27051;50.376;19.152;2023-03-14T04:17:12;96463.13;;;7.85;52.75
41306;BME280;27051;50.376;19.152;2023-03-14T04:19:38;96442.67;;;7.87;52.79
41306;BME280;27051;50.376;19.152;2023-03-14T04:22:05;96445.98;;;7.88;52.76
41306;BME280;27051;50.376;19.152;2023-03-14T04:24:31;96439.39;;;7.87;52.82
41306;BME280;27051;50.376;19.152;2023-03-14T04:26:57;96435.11;;;7.87;52.91
41306;BME280;27051;50.376;19.152;2023-03-14T04:29:24;96436.81;;;7.89;52.98
41306;BME280;27051;50.376;19.152;2023-03-14T04:31:50;96431.70;;;7.84;52.97
41306;BME280;27051;50.376;19.152;2023-03-14T04:34:17;96424.03;;;7.82;52.99
41306;BME280;27051;50.376;19.152;2023-03-14T04:36:43;96421.07;;;7.83;53.11
41306;BME280;27051;50.376;19.152;2023-03-14T04:39:09;96420.67;;;7.82;53.13
41306;BME280;27051;50.376;19.152;2023-03-14T04:41:36;96425.43;;;7.77;53.20
41306;BME280;27051;50.376;19.152;2023-03-14T04:44:02;96430.16;;;7.78;53.29
41306;BME280;27051;50.376;19.152;2023-03-14T04:46:28;96422.95;;;7.75;53.07
41306;BME280;27051;50.376;19.152;2023-03-14T04:48:55;96420.59;;;7.72;53.14
41306;BME280;27051;50.376;19.152;2023-03-14T04:51:21;96409.39;;;7.74;53.20
41306;BME280;27051;50.376;19.152;2023-03-14T04:53:48;96406.83;;;7.76;53.16
41306;BME280;27051;50.376;19.152;2023-03-14T04:56:14;96395.41;;;7.78;53.07
41306;BME280;27051;50.376;19.152;2023-03-14T04:58:40;96385.10;;;7.79;53.31
41306;BME280;27051;50.376;19.152;2023-03-14T05:01:07;96383.13;;;7.80;53.32
41306;BME280;27051;50.376;19.152;2023-03-14T05:03:33;96388.32;;;7.81;53.40
41306;BME280;27051;50.376;19.152;2023-03-14T05:06:00;96381.42;;;7.84;53.66
41306;BME280;27051;50.376;19.152;2023-03-14T05:08:26;96381.46;;;7.82;53.62
41306;BME280;27051;50.376;19.152;2023-03-14T05:10:54;96382.95;;;7.79;53.60
41306;BME280;27051;50.376;19.152;2023-03-14T05:13:21;96385.60;;;7.77;53.61
41306;BME280;27051;50.376;19.152;2023-03-14T05:15:47;96381.31;;;7.76;53.63
41306;BME280;27051;50.376;19.152;2023-03-14T05:18:14;96373.19;;;7.74;53.72
41306;BME280;27051;50.376;19.152;2023-03-14T05:20:40;96376.89;;;7.71;53.75
41306;BME280;27051;50.376;19.152;2023-03-14T05:23:06;96377.55;;;7.69;53.85
41306;BME280;27051;50.376;19.152;2023-03-14T05:25:33;96375.47;;;7.67;53.87
41306;BME280;27051;50.376;19.152;2023-03-14T05:27:59;96363.19;;;7.64;53.84
41306;BME280;27051;50.376;19.152;2023-03-14T05:30:26;96359.11;;;7.61;53.80
41306;BME280;27051;50.376;19.152;2023-03-14T05:32:52;96352.91;;;7.61;53.92
41306;BME280;27051;50.376;19.152;2023-03-14T05:35:18;96348.08;;;7.65;53.92
41306;BME280;27051;50.376;19.152;2023-03-14T05:37:45;96341.82;;;7.71;53.89
41306;BME280;27051;50.376;19.152;2023-03-14T05:40:12;96338.36;;;7.81;53.96
41306;BME280;27051;50.376;19.152;2023-03-14T05:42:38;96335.40;;;7.89;54.10
41306;BME280;27051;50.376;19.152;2023-03-14T05:45:05;96340.76;;;7.96;53.87
41306;BME280;27051;50.376;19.152;2023-03-14T05:47:32;96344.52;;;8.04;53.89
41306;BME280;27051;50.376;19.152;2023-03-14T05:49:58;96347.36;;;8.12;53.88
41306;BME280;27051;50.376;19.152;2023-03-14T05:52:24;96347.33;;;8.23;53.82
41306;BME280;27051;50.376;19.152;2023-03-14T05:54:51;96352.38;;;8.30;53.73
41306;BME280;27051;50.376;19.152;2023-03-14T05:57:17;96355.10;;;8.40;53.65
41306;BME280;27051;50.376;19.152;2023-03-14T05:59:44;96350.47;;;8.49;53.57
41306;BME280;27051;50.376;19.152;2023-03-14T06:02:10;96345.13;;;8.58;53.54
41306;BME280;27051;50.376;19.152;2023-03-14T06:04:36;96334.12;;;8.69;53.48
41306;BME280;27051;50.376;19.152;2023-03-14T06:07:03;96328.30;;;8.77;53.34
41306;BME280;27051;50.376;19.152;2023-03-14T06:09:29;96325.39;;;8.85;53.54
41306;BME280;27051;50.376;19.152;2023-03-14T06:11:55;96326.77;;;8.95;53.41
41306;BME280;27051;50.376;19.152;2023-03-14T06:14:22;96328.51;;;9.03;53.34
41306;BME280;27051;50.376;19.152;2023-03-14T06:16:48;96333.71;;;9.13;53.26
41306;BME280;27051;50.376;19.152;2023-03-14T06:19:15;96332.33;;;9.22;53.27
41306;BME280;27051;50.376;19.152;2023-03-14T06:21:41;96328.02;;;9.29;53.21
41306;BME280;27051;50.376;19.152;2023-03-14T06:24:08;96328.91;;;9.39;53.02
41306;BME280;27051;50.376;19.152;2023-03-14T06:26:34;96314.34;;;9.48;52.92
41306;BME280;27051;50.376;19.152;2023-03-14T06:29:01;96308.33;;;9.57;52.81
41306;BME280;27051;50.376;19.152;2023-03-14T06:31:27;96302.48;;;9.65;52.80
41306;BME280;27051;50.376;19.152;2023-03-14T06:33:54;96302.80;;;9.73;52.76
41306;BME280;27051;50.376;19.152;2023-03-14T06:36:20;96305.76;;;9.80;52.71
41306;BME280;27051;50.376;19.152;2023-03-14T06:38:46;96302.78;;;9.84;52.54
41306;BME280;27051;50.376;19.152;2023-03-14T06:41:13;96304.10;;;9.90;52.67
41306;BME280;27051;50.376;19.152;2023-03-14T06:43:39;96301.90;;;9.95;52.55
41306;BME280;27051;50.376;19.152;2023-03-14T06:46:06;96298.77;;;10.03;52.32
41306;BME280;27051;50.376;19.152;2023-03-14T06:48:32;96289.13;;;10.07;52.40
41306;BME280;27051;50.376;19.152;2023-03-14T06:50:58;96282.39;;;10.13;52.20
41306;BME280;27051;50.376;19.152;2023-03-14T06:53:25;96278.35;;;10.20;52.22
41306;BME280;27051;50.376;19.152;2023-03-14T06:55:51;96286.45;;;10.29;52.12
41306;BME280;27051;50.376;19.152;2023-03-14T06:58:18;96283.63;;;10.39;51.80
41306;BME280;27051;50.376;19.152;2023-03-14T07:00:44;96285.73;;;10.51;51.96
41306;BME280;27051;50.376;19.152;2023-03-14T07:03:11;96279.73;;;10.62;51.88
41306;BME280;27051;50.376;19.152;2023-03-14T07:05:39;96274.07;;;10.74;51.71
41306;BME280;27051;50.376;19.152;2023-03-14T07:08:07;96272.69;;;10.88;51.53
41306;BME280;27051;50.376;19.152;2023-03-14T07:10:34;96270.45;;;10.99;51.60
41306;BME280;27051;50.376;19.152;2023-03-14T07:13:00;96276.58;;;11.09;51.42
41306;BME280;27051;50.376;19.152;2023-03-14T07:15:27;96272.80;;;11.21;51.50
41306;BME280;27051;50.376;19.152;2023-03-14T07:17:53;96283.84;;;11.33;51.33
41306;BME280;27051;50.376;19.152;2023-03-14T07:20:19;96280.96;;;11.45;50.82
41306;BME280;27051;50.376;19.152;2023-03-14T07:22:49;96292.39;;;11.56;50.42
41306;BME280;27051;50.376;19.152;2023-03-14T07:25:16;96300.52;;;11.65;50.50
41306;BME280;27051;50.376;19.152;2023-03-14T07:27:44;96299.48;;;11.76;50.39
41306;BME280;27051;50.376;19.152;2023-03-14T07:30:11;96300.90;;;11.85;50.13
41306;BME280;27051;50.376;19.152;2023-03-14T07:32:38;96304.21;;;11.93;49.54
41306;BME280;27051;50.376;19.152;2023-03-14T07:35:05;96309.40;;;12.00;49.59
41306;BME280;27051;50.376;19.152;2023-03-14T07:37:32;96309.60;;;12.10;49.33
41306;BME280;27051;50.376;19.152;2023-03-14T07:39:58;96304.77;;;12.20;49.49
41306;BME280;27051;50.376;19.152;2023-03-14T07:42:24;96309.80;;;12.29;48.83
41306;BME280;27051;50.376;19.152;2023-03-14T07:44:51;96305.91;;;12.38;48.45
41306;BME280;27051;50.376;19.152;2023-03-14T07:47:17;96316.09;;;12.46;48.73
41306;BME280;27051;50.376;19.152;2023-03-14T07:49:44;96321.59;;;12.55;47.94
41306;BME280;27051;50.376;19.152;2023-03-14T07:52:10;96328.55;;;12.61;48.10
41306;BME280;27051;50.376;19.152;2023-03-14T07:54:36;96320.33;;;12.69;47.61
41306;BME280;27051;50.376;19.152;2023-03-14T07:57:03;96316.34;;;12.77;47.65
41306;BME280;27051;50.376;19.152;2023-03-14T07:59:29;96317.84;;;12.85;47.58
41306;BME280;27051;50.376;19.152;2023-03-14T08:01:56;96329.19;;;12.93;47.13
41306;BME280;27051;50.376;19.152;2023-03-14T08:04:22;96330.56;;;13.03;47.42
41306;BME280;27051;50.376;19.152;2023-03-14T08:06:48;96324.20;;;13.18;47.49
41306;BME280;27051;50.376;19.152;2023-03-14T08:09:15;96328.08;;;13.35;46.76
41306;BME280;27051;50.376;19.152;2023-03-14T08:11:41;96329.14;;;13.52;46.79
41306;BME280;27051;50.376;19.152;2023-03-14T08:14:10;96322.05;;;13.75;46.60
41306;BME280;27051;50.376;19.152;2023-03-14T08:16:36;96328.35;;;13.98;46.57
41306;BME280;27051;50.376;19.152;2023-03-14T08:19:02;96326.14;;;14.21;46.66
41306;BME280;27051;50.376;19.152;2023-03-14T08:21:29;96329.48;;;14.42;45.44
41306;BME280;27051;50.376;19.152;2023-03-14T08:23:55;96329.27;;;14.41;43.94
41306;BME280;27051;50.376;19.152;2023-03-14T08:26:21;96331.52;;;14.33;44.40
41306;BME280;27051;50.376;19.152;2023-03-14T08:28:48;96339.83;;;14.31;44.33
41306;BME280;27051;50.376;19.152;2023-03-14T08:31:14;96338.52;;;14.30;44.51
41306;BME280;27051;50.376;19.152;2023-03-14T08:33:41;96337.57;;;14.39;45.22
41306;BME280;27051;50.376;19.152;2023-03-14T08:36:08;96341.21;;;14.49;44.91
41306;BME280;27051;50.376;19.152;2023-03-14T08:38:34;96329.55;;;14.57;44.49
41306;BME280;27051;50.376;19.152;2023-03-14T08:41:02;96337.89;;;14.63;44.20
41306;BME280;27051;50.376;19.152;2023-03-14T08:43:29;96323.84;;;14.67;43.72
41306;BME280;27051;50.376;19.152;2023-03-14T08:45:59;96323.27;;;14.74;43.44
41306;BME280;27051;50.376;19.152;2023-03-14T08:48:26;96325.39;;;14.87;43.96
41306;BME280;27051;50.376;19.152;2023-03-14T08:50:53;96328.62;;;15.04;44.22
41306;BME280;27051;50.376;19.152;2023-03-14T08:53:19;96332.04;;;15.17;43.62
41306;BME280;27051;50.376;19.152;2023-03-14T08:55:46;96339.50;;;15.24;43.33
41306;BME280;27051;50.376;19.152;2023-03-14T08:58:12;96341.27;;;15.29;43.04
41306;BME280;27051;50.376;19.152;2023-03-14T09:00:38;96327.31;;;15.17;42.19
41306;BME280;27051;50.376;19.152;2023-03-14T09:03:05;96331.83;;;15.02;43.14
41306;BME280;27051;50.376;19.152;2023-03-14T09:05:34;96336.11;;;14.90;43.21
41306;BME280;27051;50.376;19.152;2023-03-14T09:08:01;96340.20;;;14.79;43.38
41306;BME280;27051;50.376;19.152;2023-03-14T09:10:28;96334.86;;;14.69;43.34
41306;BME280;27051;50.376;19.152;2023-03-14T09:12:54;96337.85;;;14.53;43.35
41306;BME280;27051;50.376;19.152;2023-03-14T09:15:21;96339.39;;;14.42;43.59
41306;BME280;27051;50.376;19.152;2023-03-14T09:17:48;96350.79;;;14.32;43.71
41306;BME280;27051;50.376;19.152;2023-03-14T09:20:15;96347.69;;;14.26;43.93
41306;BME280;27051;50.376;19.152;2023-03-14T09:22:41;96355.43;;;14.24;43.83
41306;BME280;27051;50.376;19.152;2023-03-14T09:25:08;96358.27;;;14.21;43.92
41306;BME280;27051;50.376;19.152;2023-03-14T09:27:34;96365.87;;;14.17;44.18
41306;BME280;27051;50.376;19.152;2023-03-14T09:30:01;96371.61;;;14.14;44.30
41306;BME280;27051;50.376;19.152;2023-03-14T09:32:30;96377.48;;;14.07;44.31
41306;BME280;27051;50.376;19.152;2023-03-14T09:34:57;96383.06;;;13.97;44.31
41306;BME280;27051;50.376;19.152;2023-03-14T09:37:23;96383.92;;;13.88;44.29
41306;BME280;27051;50.376;19.152;2023-03-14T09:39:50;96395.25;;;13.76;44.23
41306;BME280;27051;50.376;19.152;2023-03-14T09:42:19;96384.43;;;13.70;44.48
41306;BME280;27051;50.376;19.152;2023-03-14T09:44:57;96369.88;;;13.68;44.65
41306;BME280;27051;50.376;19.152;2023-03-14T09:47:26;96356.48;;;13.71;44.56
41306;BME280;27051;50.376;19.152;2023-03-14T09:49:53;96364.16;;;13.76;44.45
41306;BME280;27051;50.376;19.152;2023-03-14T09:52:56;96357.31;;;13.82;44.57
41306;BME280;27051;50.376;19.152;2023-03-14T09:55:18;96353.55;;;14.01;44.76
41306;BME280;27051;50.376;19.152;2023-03-14T09:57:46;96363.00;;;14.24;44.64
41306;BME280;27051;50.376;19.152;2023-03-14T10:03:09;96355.15;;;14.98;44.36
41306;BME280;27051;50.376;19.152;2023-03-14T10:05:41;96366.71;;;15.52;43.37
41306;BME280;27051;50.376;19.152;2023-03-14T10:08:12;96371.66;;;15.71;42.65
41306;BME280;27051;50.376;19.152;2023-03-14T10:10:39;96369.21;;;15.79;42.20
41306;BME280;27051;50.376;19.152;2023-03-14T10:13:26;96360.50;;;15.90;42.47
41306;BME280;27051;50.376;19.152;2023-03-14T10:16:02;96372.61;;;16.00;42.28
41306;BME280;27051;50.376;19.152;2023-03-14T10:18:30;96378.16;;;16.01;42.20
41306;BME280;27051;50.376;19.152;2023-03-14T10:21:20;96363.86;;;16.04;42.59
41306;BME280;27051;50.376;19.152;2023-03-14T10:23:47;96369.11;;;16.05;42.20
41306;BME280;27051;50.376;19.152;2023-03-14T10:26:16;96371.36;;;16.00;41.77
41306;BME280;27051;50.376;19.152;2023-03-14T10:28:46;96391.02;;;15.84;41.80
41306;BME280;27051;50.376;19.152;2023-03-14T10:31:13;96397.39;;;15.59;42.25
41306;BME280;27051;50.376;19.152;2023-03-14T10:33:40;96389.42;;;15.31;42.04
41306;BME280;27051;50.376;19.152;2023-03-14T10:36:23;96397.23;;;15.00;42.56
41306;BME280;27051;50.376;19.152;2023-03-14T10:38:57;96401.62;;;14.73;42.77
41306;BME280;27051;50.376;19.152;2023-03-14T10:41:30;96402.81;;;14.51;43.16
41306;BME280;27051;50.376;19.152;2023-03-14T10:43:59;96400.69;;;14.35;43.50
41306;BME280;27051;50.376;19.152;2023-03-14T10:46:30;96405.29;;;14.19;43.77
41306;BME280;27051;50.376;19.152;2023-03-14T10:48:58;96404.20;;;14.07;43.88
41306;BME280;27051;50.376;19.152;2023-03-14T10:51:27;96404.23;;;13.95;44.22
41306;BME280;27051;50.376;19.152;2023-03-14T10:53:58;96404.82;;;13.84;44.33
41306;BME280;27051;50.376;19.152;2023-03-14T10:56:27;96399.80;;;13.75;44.56
41306;BME280;27051;50.376;19.152;2023-03-14T10:58:57;96392.46;;;13.69;44.82
41306;BME280;27051;50.376;19.152;2023-03-14T11:01:43;96385.63;;;13.65;44.88
41306;BME280;27051;50.376;19.152;2023-03-14T11:09:48;96391.58;;;13.57;45.54
41306;BME280;27051;50.376;19.152;2023-03-14T11:12:44;96384.80;;;13.56;45.47
41306;BME280;27051;50.376;19.152;2023-03-14T11:15:30;96388.11;;;13.55;45.66
41306;BME280;27051;50.376;19.152;2023-03-14T11:18:14;96384.21;;;13.52;45.88
41306;BME280;27051;50.376;19.152;2023-03-14T11:23:26;96383.14;;;13.41;46.09
41306;BME280;27051;50.376;19.152;2023-03-14T11:31:47;96376.81;;;13.34;46.28
41306;BME280;27051;50.376;19.152;2023-03-14T11:34:29;96375.42;;;13.34;46.42
41306;BME280;27051;50.376;19.152;2023-03-14T11:37:17;96377.87;;;13.36;46.82
41306;BME280;27051;50.376;19.152;2023-03-14T11:39:56;96387.29;;;13.35;47.25
41306;BME280;27051;50.376;19.152;2023-03-14T11:42:26;96390.17;;;13.30;47.29
41306;BME280;27051;50.376;19.152;2023-03-14T11:44:54;96390.21;;;13.24;47.30
41306;BME280;27051;50.376;19.152;2023-03-14T11:47:29;96388.22;;;13.19;47.51
41306;BME280;27051;50.376;19.152;2023-03-14T11:50:24;96393.04;;;13.15;47.68
41306;BME280;27051;50.376;19.152;2023-03-14T11:52:55;96398.83;;;13.05;47.91
41306;BME280;27051;50.376;19.152;2023-03-14T11:55:26;96397.02;;;12.95;48.13
41306;BME280;27051;50.376;19.152;2023-03-14T11:58:05;96405.02;;;12.87;48.51
41306;BME280;27051;50.376;19.152;2023-03-14T12:00:38;96403.30;;;12.79;48.41
41306;BME280;27051;50.376;19.152;2023-03-14T12:03:14;96402.34;;;12.73;48.33
41306;BME280;27051;50.376;19.152;2023-03-14T12:08:42;96396.27;;;12.69;48.93
41306;BME280;27051;50.376;19.152;2023-03-14T12:13:40;96388.05;;;12.68;49.00
41306;BME280;27051;50.376;19.152;2023-03-14T12:18:49;96375.11;;;12.66;49.37
41306;BME280;27051;50.376;19.152;2023-03-14T12:21:16;96372.45;;;12.60;49.33
41306;BME280;27051;50.376;19.152;2023-03-14T12:23:48;96375.41;;;12.55;49.76
41306;BME280;27051;50.376;19.152;2023-03-14T12:26:20;96369.59;;;12.49;49.53
41306;BME280;27051;50.376;19.152;2023-03-14T12:45:24;96380.02;;;12.22;50.38
41306;BME280;27051;50.376;19.152;2023-03-14T12:47:54;96385.96;;;12.20;50.05
41306;BME280;27051;50.376;19.152;2023-03-14T12:50:28;96380.88;;;12.18;50.63
41306;BME280;27051;50.376;19.152;2023-03-14T12:53:19;96375.20;;;12.17;50.62
41306;BME280;27051;50.376;19.152;2023-03-14T12:55:57;96362.66;;;12.16;50.60
41306;BME280;27051;50.376;19.152;2023-03-14T12:58:39;96361.17;;;12.18;50.71
41306;BME280;27051;50.376;19.152;2023-03-14T13:01:18;96357.95;;;12.17;51.08
41306;BME280;27051;50.376;19.152;2023-03-14T13:11:55;96362.92;;;12.26;51.39
41306;BME280;27051;50.376;19.152;2023-03-14T13:14:22;96367.46;;;12.26;51.41
41306;BME280;27051;50.376;19.152;2023-03-14T13:16:49;96367.55;;;12.26;51.39
41306;BME280;27051;50.376;19.152;2023-03-14T13:19:22;96355.84;;;12.26;51.40
41306;BME280;27051;50.376;19.152;2023-03-14T13:22:02;96354.77;;;12.28;51.48
41306;BME280;27051;50.376;19.152;2023-03-14T13:24:33;96360.76;;;12.28;51.59
41306;BME280;27051;50.376;19.152;2023-03-14T13:27:00;96361.23;;;12.26;51.82
41306;BME280;27051;50.376;19.152;2023-03-14T13:29:29;96363.02;;;12.24;51.81
41306;BME280;27051;50.376;19.152;2023-03-14T13:31:58;96364.64;;;12.21;51.94
41306;BME280;27051;50.376;19.152;2023-03-14T13:34:26;96362.80;;;12.18;51.91
41306;BME280;27051;50.376;19.152;2023-03-14T13:36:55;96358.27;;;12.15;52.00
41306;BME280;27051;50.376;19.152;2023-03-14T13:39:24;96358.35;;;12.14;52.22
41306;BME280;27051;50.376;19.152;2023-03-14T13:41:52;96370.77;;;12.11;52.33
41306;BME280;27051;50.376;19.152;2023-03-14T13:44:31;96378.99;;;12.08;52.38
41306;BME280;27051;50.376;19.152;2023-03-14T13:47:02;96387.23;;;12.05;52.86
41306;BME280;27051;50.376;19.152;2023-03-14T13:49:32;96388.11;;;12.00;52.90
41306;BME280;27051;50.376;19.152;2023-03-14T13:51:59;96383.20;;;11.96;53.21
41306;BME280;27051;50.376;19.152;2023-03-14T13:54:27;96380.27;;;11.92;53.49
41306;BME280;27051;50.376;19.152;2023-03-14T13:57:04;96376.73;;;11.82;53.33
41306;BME280;27051;50.376;19.152;2023-03-14T13:59:33;96382.05;;;11.82;53.78